sensor_id;sensor_type;location;lat;lon;timestamp;temperature;humidity
40556;DHT22;26250;45.422;11.100;2024-01-27T00:00:10;5.50;99.90
40556;DHT22;26250;45.422;11.100;2024-01-27T00:02:38;5.40;99.90
40556;DHT22;26250;45.422;11.100;2024-01-27T00:05:05;5.30;99.90
40556;DHT22;26250;45.422;11.100;2024-01-27T00:07:32;5.30;99.90
40556;DHT22;26250;45.422;11.100;2024-01-27T00:09:59;5.20;99.90
40556;DHT22;26250;45.422;11.100;2024-01-27T00:12:26;5.00;99.90
40556;DHT22;26250;45.422;11.100;2024-01-27T00:14:53;5.10;99.90
40556;DHT22;26250;45.422;11.100;2024-01-27T00:17:20;4.90;99.90
40556;DHT22;26250;45.422;11.100;2024-01-27T00:19:51;4.90;99.90
40556;DHT22;26250;45.422;11.100;2024-01-27T00:22:18;4.90;99.90
40556;DHT22;26250;45.422;11.100;2024-01-27T00:24:47;5.10;99.90
40556;DHT22;26250;45.422;11.100;2024-01-27T00:27:14;5.20;99.90
40556;DHT22;26250;45.422;11.100;2024-01-27T00:29:41;5.20;99.90
40556;DHT22;26250;45.422;11.100;2024-01-27T00:32:08;5.20;99.90
40556;DHT22;26250;45.422;11.100;2024-01-27T00:34:35;5.30;99.90
40556;DHT22;26250;45.422;11.100;2024-01-27T00:37:02;5.20;99.90
40556;DHT22;26250;45.422;11.100;2024-01-27T00:39:31;5.30;99.90
40556;DHT22;26250;45.422;11.100;2024-01-27T00:41:58;5.10;99.90
40556;DHT22;26250;45.422;11.100;2024-01-27T00:44:26;5.10;99.90
40556;DHT22;26250;45.422;11.100;2024-01-27T00:46:53;4.90;99.90
40556;DHT22;26250;45.422;11.100;2024-01-27T00:49:20;5.00;99.90
40556;DHT22;26250;45.422;11.100;2024-01-27T00:51:48;5.00;99.90
40556;DHT22;26250;45.422;11.100;2024-01-27T00:54:15;4.80;99.90
40556;DHT22;26250;45.422;11.100;2024-01-27T00:56:42;5.00;99.90
40556;DHT22;26250;45.422;11.100;2024-01-27T00:59:08;5.20;99.90
40556;DHT22;26250;45.422;11.100;2024-01-27T01:01:35;5.00;99.90
40556;DHT22;26250;45.422;11.100;2024-01-27T01:04:02;5.10;99.90
40556;DHT22;26250;45.422;11.100;2024-01-27T01:06:29;5.00;99.90
40556;DHT22;26250;45.422;11.100;2024-01-27T01:08:56;5.00;99.90
40556;DHT22;26250;45.422;11.100;2024-01-27T01:11:23;4.90;99.90
40556;DHT22;26250;45.422;11.100;2024-01-27T01:13:50;5.00;99.90
40556;DHT22;26250;45.422;11.100;2024-01-27T01:16:17;5.10;99.90
40556;DHT22;26250;45.422;11.100;2024-01-27T01:18:44;4.80;99.90
40556;DHT22;26250;45.422;11.100;2024-01-27T01:21:11;4.90;99.90
40556;DHT22;26250;45.422;11.100;2024-01-27T01:23:38;4.80;99.90
40556;DHT22;26250;45.422;11.100;2024-01-27T01:26:05;5.00;99.90
40556;DHT22;26250;45.422;11.100;2024-01-27T01:28:32;4.90;99.90
40556;DHT22;26250;45.422;11.100;2024-01-27T01:30:59;5.00;99.90
40556;DHT22;26250;45.422;11.100;2024-01-27T01:33:26;5.00;99.90
40556;DHT22;26250;45.422;11.100;2024-01-27T01:35:54;4.90;99.90
40556;DHT22;26250;45.422;11.100;2024-01-27T01:38:21;4.90;99.90
40556;DHT22;26250;45.422;11.100;2024-01-27T01:40:47;4.60;99.90
40556;DHT22;26250;45.422;11.100;2024-01-27T01:43:14;4.70;99.90
40556;DHT22;26250;45.422;11.100;2024-01-27T01:45:41;4.80;99.90
40556;DHT22;26250;45.422;11.100;2024-01-27T01:48:08;4.70;99.90
40556;DHT22;26250;45.422;11.100;2024-01-27T01:50:36;4.40;99.90
40556;DHT22;26250;45.422;11.100;2024-01-27T01:53:04;4.50;99.90
40556;DHT22;26250;45.422;11.100;2024-01-27T01:55:31;4.60;99.90
40556;DHT22;26250;45.422;11.100;2024-01-27T01:57:58;4.70;99.90
40556;DHT22;26250;45.422;11.100;2024-01-27T02:00:25;4.80;99.90
40556;DHT22;26250;45.422;11.100;2024-01-27T02:02:52;4.70;99.90
40556;DHT22;26250;45.422;11.100;2024-01-27T02:05:19;4.70;99.90
40556;DHT22;26250;45.422;11.100;2024-01-27T02:07:46;4.80;99.90
40556;DHT22;26250;45.422;11.100;2024-01-27T02:10:14;4.90;99.90
40556;DHT22;26250;45.422;11.100;2024-01-27T02:12:45;4.90;99.90
40556;DHT22;26250;45.422;11.100;2024-01-27T02:15:12;4.70;99.90
40556;DHT22;26250;45.422;11.100;2024-01-27T02:17:41;4.70;99.90
40556;DHT22;26250;45.422;11.100;2024-01-27T02:20:08;4.50;99.90
40556;DHT22;26250;45.422;11.100;2024-01-27T02:22:36;4.60;99.90
40556;DHT22;26250;45.422;11.100;2024-01-27T02:25:03;4.40;99.90
40556;DHT22;26250;45.422;11.100;2024-01-27T02:27:30;4.60;99.90
40556;DHT22;26250;45.422;11.100;2024-01-27T02:29:57;4.60;99.90
40556;DHT22;26250;45.422;11.100;2024-01-27T02:32:24;4.60;99.90
40556;DHT22;26250;45.422;11.100;2024-01-27T02:34:51;4.50;99.90
40556;DHT22;26250;45.422;11.100;2024-01-27T02:37:18;4.50;99.90
40556;DHT22;26250;45.422;11.100;2024-01-27T02:39:46;4.50;99.90
40556;DHT22;26250;45.422;11.100;2024-01-27T02:42:13;4.20;99.90
40556;DHT22;26250;45.422;11.100;2024-01-27T02:44:40;4.30;99.90
40556;DHT22;26250;45.422;11.100;2024-01-27T02:47:07;4.30;99.90
40556;DHT22;26250;45.422;11.100;2024-01-27T02:49:34;4.50;99.90
40556;DHT22;26250;45.422;11.100;2024-01-27T02:52:01;4.50;99.90
40556;DHT22;26250;45.422;11.100;2024-01-27T02:54:28;4.50;99.90
40556;DHT22;26250;45.422;11.100;2024-01-27T02:56:55;4.30;99.90
40556;DHT22;26250;45.422;11.100;2024-01-27T02:59:22;4.20;99.90
40556;DHT22;26250;45.422;11.100;2024-01-27T03:01:49;4.30;99.90
40556;DHT22;26250;45.422;11.100;2024-01-27T03:04:16;4.30;99.90
40556;DHT22;26250;45.422;11.100;2024-01-27T03:06:43;4.40;99.90
40556;DHT22;26250;45.422;11.100;2024-01-27T03:09:11;4.30;99.90
40556;DHT22;26250;45.422;11.100;2024-01-27T03:11:38;4.40;99.90
40556;DHT22;26250;45.422;11.100;2024-01-27T03:14:05;4.10;99.90
40556;DHT22;26250;45.422;11.100;2024-01-27T03:16:32;4.30;99.90
40556;DHT22;26250;45.422;11.100;2024-01-27T03:18:59;4.40;99.90
40556;DHT22;26250;45.422;11.100;2024-01-27T03:21:27;4.40;99.90
40556;DHT22;26250;45.422;11.100;2024-01-27T03:23:54;4.30;99.90
40556;DHT22;26250;45.422;11.100;2024-01-27T03:26:21;4.30;99.90
40556;DHT22;26250;45.422;11.100;2024-01-27T03:28:48;4.30;99.90
40556;DHT22;26250;45.422;11.100;2024-01-27T03:31:15;4.00;99.90
40556;DHT22;26250;45.422;11.100;2024-01-27T03:33:41;3.90;99.90
40556;DHT22;26250;45.422;11.100;2024-01-27T03:36:10;3.90;99.90
40556;DHT22;26250;45.422;11.100;2024-01-27T03:38:40;3.70;99.90
40556;DHT22;26250;45.422;11.100;2024-01-27T03:41:07;3.80;99.90
40556;DHT22;26250;45.422;11.100;2024-01-27T03:43:34;3.70;99.90
40556;DHT22;26250;45.422;11.100;2024-01-27T03:46:01;3.80;99.90
40556;DHT22;26250;45.422;11.100;2024-01-27T03:48:29;3.80;99.90
40556;DHT22;26250;45.422;11.100;2024-01-27T03:50:57;3.70;99.90
40556;DHT22;26250;45.422;11.100;2024-01-27T03:53:24;3.60;99.90
40556;DHT22;26250;45.422;11.100;2024-01-27T03:55:51;3.70;99.90
40556;DHT22;26250;45.422;11.100;2024-01-27T03:58:18;3.80;99.90
40556;DHT22;26250;45.422;11.100;2024-01-27T04:00:45;3.60;99.90
40556;DHT22;26250;45.422;11.100;2024-01-27T04:03:12;3.60;99.90
40556;DHT22;26250;45.422;11.100;2024-01-27T04:05:40;3.60;99.90
40556;DHT22;26250;45.422;11.100;2024-01-27T04:08:07;3.50;99.90
40556;DHT22;26250;45.422;11.100;2024-01-27T04:10:33;3.60;99.90
40556;DHT22;26250;45.422;11.100;2024-01-27T04:13:01;3.40;99.90
40556;DHT22;26250;45.422;11.100;2024-01-27T04:15:28;3.50;99.90
40556;DHT22;26250;45.422;11.100;2024-01-27T04:17:55;3.40;99.90
40556;DHT22;26250;45.422;11.100;2024-01-27T04:20:22;3.50;99.90
40556;DHT22;26250;45.422;11.100;2024-01-27T04:22:49;3.40;99.90
40556;DHT22;26250;45.422;11.100;2024-01-27T04:25:16;3.20;99.90
40556;DHT22;26250;45.422;11.100;2024-01-27T04:27:43;3.20;99.90
40556;DHT22;26250;45.422;11.100;2024-01-27T04:30:11;3.40;99.90
40556;DHT22;26250;45.422;11.100;2024-01-27T04:32:39;3.40;99.90
40556;DHT22;26250;45.422;11.100;2024-01-27T04:35:10;3.20;99.90
40556;DHT22;26250;45.422;11.100;2024-01-27T04:37:37;3.30;99.90
40556;DHT22;26250;45.422;11.100;2024-01-27T04:40:05;3.20;99.90
40556;DHT22;26250;45.422;11.100;2024-01-27T04:42:37;3.30;99.90
40556;DHT22;26250;45.422;11.100;2024-01-27T04:45:05;3.30;99.90
40556;DHT22;26250;45.422;11.100;2024-01-27T04:47:32;3.40;99.90
40556;DHT22;26250;45.422;11.100;2024-01-27T04:49:59;3.40;99.90
40556;DHT22;26250;45.422;11.100;2024-01-27T04:52:26;3.40;99.90
40556;DHT22;26250;45.422;11.100;2024-01-27T04:54:53;3.40;99.90
40556;DHT22;26250;45.422;11.100;2024-01-27T04:57:20;3.20;99.90
40556;DHT22;26250;45.422;11.100;2024-01-27T04:59:47;3.40;99.90
40556;DHT22;26250;45.422;11.100;2024-01-27T05:02:14;3.20;99.90
40556;DHT22;26250;45.422;11.100;2024-01-27T05:04:41;3.20;99.90
40556;DHT22;26250;45.422;11.100;2024-01-27T05:07:07;3.20;99.90
40556;DHT22;26250;45.422;11.100;2024-01-27T05:09:35;3.20;99.90
40556;DHT22;26250;45.422;11.100;2024-01-27T05:12:02;3.40;99.90
40556;DHT22;26250;45.422;11.100;2024-01-27T05:14:30;3.10;99.90
40556;DHT22;26250;45.422;11.100;2024-01-27T05:16:56;3.00;99.90
40556;DHT22;26250;45.422;11.100;2024-01-27T05:19:23;3.00;99.90
40556;DHT22;26250;45.422;11.100;2024-01-27T05:21:50;3.10;99.90
40556;DHT22;26250;45.422;11.100;2024-01-27T05:24:17;2.90;99.90
40556;DHT22;26250;45.422;11.100;2024-01-27T05:26:44;3.10;99.90
40556;DHT22;26250;45.422;11.100;2024-01-27T05:29:11;3.00;99.90
40556;DHT22;26250;45.422;11.100;2024-01-27T05:31:38;2.90;99.90
40556;DHT22;26250;45.422;11.100;2024-01-27T05:34:05;3.00;99.90
40556;DHT22;26250;45.422;11.100;2024-01-27T05:36:32;3.00;99.90
40556;DHT22;26250;45.422;11.100;2024-01-27T05:38:59;3.20;99.90
40556;DHT22;26250;45.422;11.100;2024-01-27T05:41:27;3.30;99.90
40556;DHT22;26250;45.422;11.100;2024-01-27T05:43:56;3.00;99.90
40556;DHT22;26250;45.422;11.100;2024-01-27T05:46:26;3.10;99.90
40556;DHT22;26250;45.422;11.100;2024-01-27T05:48:53;3.20;99.90
40556;DHT22;26250;45.422;11.100;2024-01-27T05:51:28;3.20;99.90
40556;DHT22;26250;45.422;11.100;2024-01-27T05:53:56;3.10;99.90
40556;DHT22;26250;45.422;11.100;2024-01-27T05:56:23;3.30;99.90
40556;DHT22;26250;45.422;11.100;2024-01-27T05:58:50;3.20;99.90
40556;DHT22;26250;45.422;11.100;2024-01-27T06:01:20;3.30;99.90
40556;DHT22;26250;45.422;11.100;2024-01-27T06:03:47;3.30;99.90
40556;DHT22;26250;45.422;11.100;2024-01-27T06:06:14;3.40;99.90
40556;DHT22;26250;45.422;11.100;2024-01-27T06:08:41;3.20;99.90
40556;DHT22;26250;45.422;11.100;2024-01-27T06:11:08;3.20;99.90
40556;DHT22;26250;45.422;11.100;2024-01-27T06:13:36;3.30;99.90
40556;DHT22;26250;45.422;11.100;2024-01-27T06:16:08;3.40;99.90
40556;DHT22;26250;45.422;11.100;2024-01-27T06:18:38;3.20;99.90
40556;DHT22;26250;45.422;11.100;2024-01-27T06:21:05;3.20;99.90
40556;DHT22;26250;45.422;11.100;2024-01-27T06:23:33;3.30;99.90
40556;DHT22;26250;45.422;11.100;2024-01-27T06:26:05;3.30;99.90
40556;DHT22;26250;45.422;11.100;2024-01-27T06:28:32;3.30;99.90
40556;DHT22;26250;45.422;11.100;2024-01-27T06:31:03;3.40;99.90
40556;DHT22;26250;45.422;11.100;2024-01-27T06:33:31;3.30;99.90
40556;DHT22;26250;45.422;11.100;2024-01-27T06:35:58;3.00;99.90
40556;DHT22;26250;45.422;11.100;2024-01-27T06:38:27;2.80;99.90
40556;DHT22;26250;45.422;11.100;2024-01-27T06:40:54;3.00;99.90
40556;DHT22;26250;45.422;11.100;2024-01-27T06:43:21;2.80;99.90
40556;DHT22;26250;45.422;11.100;2024-01-27T06:45:48;2.80;99.90
40556;DHT22;26250;45.422;11.100;2024-01-27T06:48:15;3.00;99.90
40556;DHT22;26250;45.422;11.100;2024-01-27T06:50:42;3.00;99.90
40556;DHT22;26250;45.422;11.100;2024-01-27T06:53:09;3.10;99.90
40556;DHT22;26250;45.422;11.100;2024-01-27T06:55:37;3.20;99.90
40556;DHT22;26250;45.422;11.100;2024-01-27T06:58:09;3.30;99.90
40556;DHT22;26250;45.422;11.100;2024-01-27T07:00:36;3.10;99.90
40556;DHT22;26250;45.422;11.100;2024-01-27T07:03:03;3.20;99.90
40556;DHT22;26250;45.422;11.100;2024-01-27T07:05:31;3.20;99.90
40556;DHT22;26250;45.422;11.100;2024-01-27T07:08:00;3.20;99.90
40556;DHT22;26250;45.422;11.100;2024-01-27T07:10:27;3.20;99.90
40556;DHT22;26250;45.422;11.100;2024-01-27T07:12:54;3.10;99.90
40556;DHT22;26250;45.422;11.100;2024-01-27T07:15:20;3.20;99.90
40556;DHT22;26250;45.422;11.100;2024-01-27T07:17:48;3.10;99.90
40556;DHT22;26250;45.422;11.100;2024-01-27T07:20:15;3.20;99.90
40556;DHT22;26250;45.422;11.100;2024-01-27T07:22:42;3.20;99.90
40556;DHT22;26250;45.422;11.100;2024-01-27T07:25:09;3.00;99.90
40556;DHT22;26250;45.422;11.100;2024-01-27T07:27:37;3.00;99.90
40556;DHT22;26250;45.422;11.100;2024-01-27T07:30:04;3.00;99.90
40556;DHT22;26250;45.422;11.100;2024-01-27T07:32:32;3.10;99.90
40556;DHT22;26250;45.422;11.100;2024-01-27T07:34:59;3.20;99.90
40556;DHT22;26250;45.422;11.100;2024-01-27T07:37:26;3.20;99.90
40556;DHT22;26250;45.422;11.100;2024-01-27T07:39:53;3.40;99.90
40556;DHT22;26250;45.422;11.100;2024-01-27T07:42:20;3.30;99.90
40556;DHT22;26250;45.422;11.100;2024-01-27T07:44:47;3.20;99.90
40556;DHT22;26250;45.422;11.100;2024-01-27T07:47:14;3.20;99.90
40556;DHT22;26250;45.422;11.100;2024-01-27T07:49:41;3.20;99.90
40556;DHT22;26250;45.422;11.100;2024-01-27T07:52:08;3.30;99.90
40556;DHT22;26250;45.422;11.100;2024-01-27T07:54:34;3.50;99.90
40556;DHT22;26250;45.422;11.100;2024-01-27T07:57:06;3.60;99.90
40556;DHT22;26250;45.422;11.100;2024-01-27T07:59:33;3.50;99.90
40556;DHT22;26250;45.422;11.100;2024-01-27T08:02:00;3.50;99.90
40556;DHT22;26250;45.422;11.100;2024-01-27T08:04:27;3.60;99.90
40556;DHT22;26250;45.422;11.100;2024-01-27T08:06:54;3.70;99.90
40556;DHT22;26250;45.422;11.100;2024-01-27T08:09:21;3.40;99.90
40556;DHT22;26250;45.422;11.100;2024-01-27T08:11:48;3.50;99.90
40556;DHT22;26250;45.422;11.100;2024-01-27T08:14:19;3.60;99.90
40556;DHT22;26250;45.422;11.100;2024-01-27T08:16:46;3.60;99.90
40556;DHT22;26250;45.422;11.100;2024-01-27T08:19:13;3.00;99.90
40556;DHT22;26250;45.422;11.100;2024-01-27T08:21:47;3.40;99.90
40556;DHT22;26250;45.422;11.100;2024-01-27T08:24:14;3.30;99.90
40556;DHT22;26250;45.422;11.100;2024-01-27T08:26:41;3.30;99.90
40556;DHT22;26250;45.422;11.100;2024-01-27T08:29:09;3.40;99.90
40556;DHT22;26250;45.422;11.100;2024-01-27T08:31:36;3.50;99.90
40556;DHT22;26250;45.422;11.100;2024-01-27T08:34:05;3.60;99.90
40556;DHT22;26250;45.422;11.100;2024-01-27T08:36:33;3.80;99.90
40556;DHT22;26250;45.422;11.100;2024-01-27T08:39:01;3.70;99.90
40556;DHT22;26250;45.422;11.100;2024-01-27T08:41:28;3.80;99.90
40556;DHT22;26250;45.422;11.100;2024-01-27T08:43:58;3.90;99.90
40556;DHT22;26250;45.422;11.100;2024-01-27T08:46:25;3.90;99.90
40556;DHT22;26250;45.422;11.100;2024-01-27T08:48:51;4.10;99.90
40556;DHT22;26250;45.422;11.100;2024-01-27T08:51:19;3.80;99.90
40556;DHT22;26250;45.422;11.100;2024-01-27T08:53:45;3.70;99.90
40556;DHT22;26250;45.422;11.100;2024-01-27T08:56:16;3.80;99.90
40556;DHT22;26250;45.422;11.100;2024-01-27T08:58:44;3.70;99.90
40556;DHT22;26250;45.422;11.100;2024-01-27T09:01:11;3.70;99.90
40556;DHT22;26250;45.422;11.100;2024-01-27T09:03:41;3.60;99.90
40556;DHT22;26250;45.422;11.100;2024-01-27T09:06:08;3.70;99.90
40556;DHT22;26250;45.422;11.100;2024-01-27T09:08:36;3.60;99.90
40556;DHT22;26250;45.422;11.100;2024-01-27T09:11:04;3.60;99.90
40556;DHT22;26250;45.422;11.100;2024-01-27T09:13:30;3.70;99.90
40556;DHT22;26250;45.422;11.100;2024-01-27T09:15:57;3.80;99.90
40556;DHT22;26250;45.422;11.100;2024-01-27T09:18:26;3.80;99.90
40556;DHT22;26250;45.422;11.100;2024-01-27T09:20:54;3.80;99.90
40556;DHT22;26250;45.422;11.100;2024-01-27T09:23:21;3.80;99.90
40556;DHT22;26250;45.422;11.100;2024-01-27T09:25:48;4.10;99.90
40556;DHT22;26250;45.422;11.100;2024-01-27T09:28:15;4.00;99.90
40556;DHT22;26250;45.422;11.100;2024-01-27T09:30:43;4.00;99.90
40556;DHT22;26250;45.422;11.100;2024-01-27T09:33:11;4.00;99.90
40556;DHT22;26250;45.422;11.100;2024-01-27T09:35:38;3.70;99.90
40556;DHT22;26250;45.422;11.100;2024-01-27T09:38:05;3.80;99.90
40556;DHT22;26250;45.422;11.100;2024-01-27T09:40:36;4.00;99.90
40556;DHT22;26250;45.422;11.100;2024-01-27T09:43:03;3.90;99.90
40556;DHT22;26250;45.422;11.100;2024-01-27T09:45:30;4.00;99.90
40556;DHT22;26250;45.422;11.100;2024-01-27T09:47:57;4.00;99.90
40556;DHT22;26250;45.422;11.100;2024-01-27T09:50:26;4.00;99.90
40556;DHT22;26250;45.422;11.100;2024-01-27T09:52:53;4.20;99.90
40556;DHT22;26250;45.422;11.100;2024-01-27T09:55:20;4.30;99.90
40556;DHT22;26250;45.422;11.100;2024-01-27T09:57:47;4.20;99.90
40556;DHT22;26250;45.422;11.100;2024-01-27T10:00:15;4.40;99.90
40556;DHT22;26250;45.422;11.100;2024-01-27T10:02:45;4.60;99.90
40556;DHT22;26250;45.422;11.100;2024-01-27T10:05:13;4.50;99.90
40556;DHT22;26250;45.422;11.100;2024-01-27T10:07:40;4.30;99.90
40556;DHT22;26250;45.422;11.100;2024-01-27T10:10:07;4.20;99.90
40556;DHT22;26250;45.422;11.100;2024-01-27T10:12:39;4.10;99.90
40556;DHT22;26250;45.422;11.100;2024-01-27T10:15:07;4.30;99.90
40556;DHT22;26250;45.422;11.100;2024-01-27T10:17:44;4.40;99.90
40556;DHT22;26250;45.422;11.100;2024-01-27T10:20:11;4.20;99.90
40556;DHT22;26250;45.422;11.100;2024-01-27T10:22:42;4.30;99.90
40556;DHT22;26250;45.422;11.100;2024-01-27T10:25:11;4.50;99.90
40556;DHT22;26250;45.422;11.100;2024-01-27T10:27:38;4.40;99.90
40556;DHT22;26250;45.422;11.100;2024-01-27T10:30:06;4.40;99.90
40556;DHT22;26250;45.422;11.100;2024-01-27T10:32:34;4.50;99.90
40556;DHT22;26250;45.422;11.100;2024-01-27T10:35:06;4.60;99.90
40556;DHT22;26250;45.422;11.100;2024-01-27T10:37:38;4.50;99.90
40556;DHT22;26250;45.422;11.100;2024-01-27T10:40:07;4.50;99.90
40556;DHT22;26250;45.422;11.100;2024-01-27T10:42:38;4.40;99.90
40556;DHT22;26250;45.422;11.100;2024-01-27T10:45:05;4.50;99.90
40556;DHT22;26250;45.422;11.100;2024-01-27T10:47:33;4.60;99.90
40556;DHT22;26250;45.422;11.100;2024-01-27T10:50:00;4.70;99.90
40556;DHT22;26250;45.422;11.100;2024-01-27T10:52:30;4.70;99.90
40556;DHT22;26250;45.422;11.100;2024-01-27T10:54:59;4.70;99.90
40556;DHT22;26250;45.422;11.100;2024-01-27T10:57:29;4.80;99.90
40556;DHT22;26250;45.422;11.100;2024-01-27T10:59:57;4.90;99.90
40556;DHT22;26250;45.422;11.100;2024-01-27T11:02:25;5.10;99.90
40556;DHT22;26250;45.422;11.100;2024-01-27T11:04:52;5.20;99.90
40556;DHT22;26250;45.422;11.100;2024-01-27T11:07:27;4.80;99.90
40556;DHT22;26250;45.422;11.100;2024-01-27T11:09:55;4.80;99.90
40556;DHT22;26250;45.422;11.100;2024-01-27T11:12:22;4.90;99.90
40556;DHT22;26250;45.422;11.100;2024-01-27T11:14:50;4.70;99.90
40556;DHT22;26250;45.422;11.100;2024-01-27T11:17:19;5.10;99.90
40556;DHT22;26250;45.422;11.100;2024-01-27T11:19:46;5.40;99.90
40556;DHT22;26250;45.422;11.100;2024-01-27T11:22:27;5.70;99.90
40556;DHT22;26250;45.422;11.100;2024-01-27T11:25:08;5.30;99.90
40556;DHT22;26250;45.422;11.100;2024-01-27T11:27:42;5.70;99.90
40556;DHT22;26250;45.422;11.100;2024-01-27T11:30:27;5.50;99.90
40556;DHT22;26250;45.422;11.100;2024-01-27T11:32:56;5.70;99.90
40556;DHT22;26250;45.422;11.100;2024-01-27T11:35:24;5.70;99.90
40556;DHT22;26250;45.422;11.100;2024-01-27T11:37:52;5.70;99.90
40556;DHT22;26250;45.422;11.100;2024-01-27T11:40:19;5.70;99.90
40556;DHT22;26250;45.422;11.100;2024-01-27T11:42:58;6.00;99.90
40556;DHT22;26250;45.422;11.100;2024-01-27T11:45:26;6.10;99.90
40556;DHT22;26250;45.422;11.100;2024-01-27T11:47:55;6.10;99.90
40556;DHT22;26250;45.422;11.100;2024-01-27T11:50:23;6.10;99.90
40556;DHT22;26250;45.422;11.100;2024-01-27T11:52:50;6.10;99.90
40556;DHT22;26250;45.422;11.100;2024-01-27T11:55:17;6.10;99.90
40556;DHT22;26250;45.422;11.100;2024-01-27T11:57:45;6.10;99.90
40556;DHT22;26250;45.422;11.100;2024-01-27T12:00:13;6.00;99.90
40556;DHT22;26250;45.422;11.100;2024-01-27T12:02:40;6.00;99.90
40556;DHT22;26250;45.422;11.100;2024-01-27T12:05:11;6.40;99.90
40556;DHT22;26250;45.422;11.100;2024-01-27T12:07:39;6.10;99.90
40556;DHT22;26250;45.422;11.100;2024-01-27T12:10:07;6.20;99.90
40556;DHT22;26250;45.422;11.100;2024-01-27T12:12:34;6.40;99.90
40556;DHT22;26250;45.422;11.100;2024-01-27T12:15:01;6.70;99.90
40556;DHT22;26250;45.422;11.100;2024-01-27T12:17:29;6.60;99.90
40556;DHT22;26250;45.422;11.100;2024-01-27T12:19:56;6.70;99.90
40556;DHT22;26250;45.422;11.100;2024-01-27T12:22:25;6.80;99.90
40556;DHT22;26250;45.422;11.100;2024-01-27T12:24:54;6.80;99.90
40556;DHT22;26250;45.422;11.100;2024-01-27T12:27:22;6.90;99.90
40556;DHT22;26250;45.422;11.100;2024-01-27T12:29:50;6.80;99.90
40556;DHT22;26250;45.422;11.100;2024-01-27T12:32:17;6.80;99.90
40556;DHT22;26250;45.422;11.100;2024-01-27T12:34:44;6.90;99.90
40556;DHT22;26250;45.422;11.100;2024-01-27T12:37:16;6.60;99.90
40556;DHT22;26250;45.422;11.100;2024-01-27T12:39:44;6.70;99.90
40556;DHT22;26250;45.422;11.100;2024-01-27T12:42:11;6.80;99.90
40556;DHT22;26250;45.422;11.100;2024-01-27T12:44:41;7.00;99.90
40556;DHT22;26250;45.422;11.100;2024-01-27T12:47:09;7.10;99.90
40556;DHT22;26250;45.422;11.100;2024-01-27T12:49:36;7.10;99.90
40556;DHT22;26250;45.422;11.100;2024-01-27T12:52:04;7.00;99.90
40556;DHT22;26250;45.422;11.100;2024-01-27T12:54:32;7.10;99.90
40556;DHT22;26250;45.422;11.100;2024-01-27T12:57:00;7.10;99.90
40556;DHT22;26250;45.422;11.100;2024-01-27T12:59:28;7.20;99.90
40556;DHT22;26250;45.422;11.100;2024-01-27T13:01:55;7.40;99.90
40556;DHT22;26250;45.422;11.100;2024-01-27T13:04:23;7.60;99.90
40556;DHT22;26250;45.422;11.100;2024-01-27T13:06:50;7.70;99.90
40556;DHT22;26250;45.422;11.100;2024-01-27T13:09:18;7.60;99.90
40556;DHT22;26250;45.422;11.100;2024-01-27T13:11:45;7.40;99.90
40556;DHT22;26250;45.422;11.100;2024-01-27T13:14:12;7.30;99.90
40556;DHT22;26250;45.422;11.100;2024-01-27T13:16:39;7.40;99.90
40556;DHT22;26250;45.422;11.100;2024-01-27T13:19:06;7.00;99.90
40556;DHT22;26250;45.422;11.100;2024-01-27T13:21:33;7.10;99.90
40556;DHT22;26250;45.422;11.100;2024-01-27T13:24:00;7.40;99.90
40556;DHT22;26250;45.422;11.100;2024-01-27T13:26:28;7.50;99.90
40556;DHT22;26250;45.422;11.100;2024-01-27T13:28:55;7.70;99.90
40556;DHT22;26250;45.422;11.100;2024-01-27T13:31:22;7.70;99.90
40556;DHT22;26250;45.422;11.100;2024-01-27T13:33:49;7.70;99.90
40556;DHT22;26250;45.422;11.100;2024-01-27T13:36:16;7.70;99.90
40556;DHT22;26250;45.422;11.100;2024-01-27T13:38:44;7.70;99.90
40556;DHT22;26250;45.422;11.100;2024-01-27T13:41:11;7.70;99.90
40556;DHT22;26250;45.422;11.100;2024-01-27T13:43:38;7.50;99.90
40556;DHT22;26250;45.422;11.100;2024-01-27T13:46:05;7.30;99.90
40556;DHT22;26250;45.422;11.100;2024-01-27T13:48:31;7.70;99.90
40556;DHT22;26250;45.422;11.100;2024-01-27T13:50:59;7.90;99.90
40556;DHT22;26250;45.422;11.100;2024-01-27T13:53:26;8.40;99.90
40556;DHT22;26250;45.422;11.100;2024-01-27T13:56:08;8.20;99.90
40556;DHT22;26250;45.422;11.100;2024-01-27T13:58:35;8.00;99.90
40556;DHT22;26250;45.422;11.100;2024-01-27T14:01:02;7.60;99.90
40556;DHT22;26250;45.422;11.100;2024-01-27T14:03:30;7.70;99.90
40556;DHT22;26250;45.422;11.100;2024-01-27T14:05:57;7.60;99.90
40556;DHT22;26250;45.422;11.100;2024-01-27T14:08:24;7.60;99.90
40556;DHT22;26250;45.422;11.100;2024-01-27T14:10:52;7.80;99.90
40556;DHT22;26250;45.422;11.100;2024-01-27T14:13:19;8.00;99.90
40556;DHT22;26250;45.422;11.100;2024-01-27T14:15:46;8.00;99.90
40556;DHT22;26250;45.422;11.100;2024-01-27T14:18:13;8.00;99.90
40556;DHT22;26250;45.422;11.100;2024-01-27T14:20:47;8.10;99.90
40556;DHT22;26250;45.422;11.100;2024-01-27T14:23:15;10.40;99.90
40556;DHT22;26250;45.422;11.100;2024-01-27T14:25:42;10.90;99.90
40556;DHT22;26250;45.422;11.100;2024-01-27T14:28:13;11.10;99.90
40556;DHT22;26250;45.422;11.100;2024-01-27T14:30:41;11.30;99.90
40556;DHT22;26250;45.422;11.100;2024-01-27T14:33:09;9.30;99.90
40556;DHT22;26250;45.422;11.100;2024-01-27T14:35:36;8.20;99.90
40556;DHT22;26250;45.422;11.100;2024-01-27T14:38:04;8.00;99.90
40556;DHT22;26250;45.422;11.100;2024-01-27T14:40:31;8.10;99.90
40556;DHT22;26250;45.422;11.100;2024-01-27T14:42:59;8.10;99.90
40556;DHT22;26250;45.422;11.100;2024-01-27T14:45:26;8.00;99.90
40556;DHT22;26250;45.422;11.100;2024-01-27T14:47:53;8.10;99.90
40556;DHT22;26250;45.422;11.100;2024-01-27T14:50:24;8.40;99.90
40556;DHT22;26250;45.422;11.100;2024-01-27T14:52:52;9.10;99.90
40556;DHT22;26250;45.422;11.100;2024-01-27T14:55:19;10.30;99.90
40556;DHT22;26250;45.422;11.100;2024-01-27T14:57:46;10.60;99.90
40556;DHT22;26250;45.422;11.100;2024-01-27T15:00:13;11.40;99.90
40556;DHT22;26250;45.422;11.100;2024-01-27T15:02:42;12.30;99.90
40556;DHT22;26250;45.422;11.100;2024-01-27T15:05:12;12.80;99.90
40556;DHT22;26250;45.422;11.100;2024-01-27T15:07:39;12.90;99.90
40556;DHT22;26250;45.422;11.100;2024-01-27T15:10:06;13.10;99.90
40556;DHT22;26250;45.422;11.100;2024-01-27T15:12:33;13.40;99.90
40556;DHT22;26250;45.422;11.100;2024-01-27T15:15:01;13.60;99.90
40556;DHT22;26250;45.422;11.100;2024-01-27T15:17:28;13.60;99.90
40556;DHT22;26250;45.422;11.100;2024-01-27T15:19:55;13.60;99.90
40556;DHT22;26250;45.422;11.100;2024-01-27T15:22:23;13.50;99.90
40556;DHT22;26250;45.422;11.100;2024-01-27T15:24:50;13.60;99.90
40556;DHT22;26250;45.422;11.100;2024-01-27T15:27:16;13.60;99.90
40556;DHT22;26250;45.422;11.100;2024-01-27T15:29:43;13.60;99.90
40556;DHT22;26250;45.422;11.100;2024-01-27T15:32:11;13.60;99.90